Time;durP1;ratioP1;P1;durP2;ratioP2;P2;SDS_P1;SDS_P2;PMS_P1;PMS_P2;Temp;Humidity;BMP_temperature;BMP_pressure;BME280_temperature;BME280_humidity;BME280_pressure;Samples;Min_cycle;Max_cycle;Signal;HPM_P1;HPM_P2
2023/10/03 00:00:22;;;;;;;28.05;12.70;;;14.40;99.90;;;;;;4958246;28;20069;-78
2023/10/03 00:02:50;;;;;;;24.55;12.25;;;14.40;99.90;;;;;;4973320;28;20031;-78
2023/10/03 00:05:21;;;;;;;28.17;13.57;;;14.40;99.90;;;;;;4972920;28;20065;-77
2023/10/03 00:07:47;;;;;;;24.38;12.40;;;14.40;99.90;;;;;;4960385;28;20133;-78
2023/10/03 00:10:13;;;;;;;26.88;12.30;;;14.40;99.90;;;;;;4969923;28;20030;-77
2023/10/03 00:12:39;;;;;;;27.55;12.77;;;14.40;99.90;;;;;;4979508;28;20042;-78
2023/10/03 00:15:08;;;;;;;26.92;11.70;;;14.40;99.90;;;;;;4970666;28;20476;-78
2023/10/03 00:17:34;;;;;;;28.33;13.30;;;14.40;99.90;;;;;;4976134;28;20375;-78
2023/10/03 00:20:04;;;;;;;29.20;12.90;;;14.40;99.90;;;;;;4975388;28;20090;-78
2023/10/03 00:22:30;;;;;;;23.80;10.70;;;14.40;99.90;;;;;;4971708;28;20415;-78
2023/10/03 00:24:55;;;;;;;24.75;12.43;;;14.30;99.90;;;;;;4973907;28;20026;-78
2023/10/03 00:27:21;;;;;;;27.60;12.52;;;14.40;99.90;;;;;;4977525;28;20417;-78
2023/10/03 00:29:47;;;;;;;24.08;10.80;;;14.40;99.90;;;;;;4977803;28;20471;-78
2023/10/03 00:32:13;;;;;;;23.95;11.27;;;14.40;99.90;;;;;;4955308;28;20122;-79
2023/10/03 00:34:41;;;;;;;28.77;10.52;;;14.30;99.90;;;;;;4978694;28;20129;-79
2023/10/03 00:37:07;;;;;;;28.48;11.68;;;14.20;99.90;;;;;;4957711;28;20053;-79
2023/10/03 00:39:33;;;;;;;28.52;11.75;;;14.20;99.90;;;;;;4981216;28;20050;-78
2023/10/03 00:42:02;;;;;;;21.50;11.07;;;14.10;99.90;;;;;;4975633;28;20031;-78
2023/10/03 00:44:28;;;;;;;24.90;11.68;;;14.00;99.90;;;;;;4972296;28;20065;-78
2023/10/03 00:46:54;;;;;;;24.58;11.50;;;14.00;99.90;;;;;;4980298;28;20027;-78
2023/10/03 00:49:21;;;;;;;24.00;10.98;;;13.90;99.90;;;;;;4958079;28;20043;-78
2023/10/03 00:51:47;;;;;;;27.15;12.40;;;13.90;99.90;;;;;;4962716;28;20027;-79
2023/10/03 00:54:13;;;;;;;23.83;10.90;;;13.90;99.90;;;;;;4980361;28;20054;-79
2023/10/03 00:56:43;;;;;;;23.80;11.68;;;13.80;99.90;;;;;;4961673;28;20089;-80
2023/10/03 00:59:10;;;;;;;24.35;11.60;;;13.80;99.90;;;;;;4952650;28;20038;-80
2023/10/03 01:01:37;;;;;;;25.17;11.23;;;13.70;99.90;;;;;;4970002;28;20060;-81
2023/10/03 01:04:04;;;;;;;24.10;10.80;;;13.70;99.90;;;;;;4971046;28;20126;-80
2023/10/03 01:06:30;;;;;;;25.10;12.60;;;13.70;99.90;;;;;;4941360;28;20695;-78
2023/10/03 01:08:55;;;;;;;26.33;10.68;;;13.60;99.90;;;;;;4973671;28;20078;-78
2023/10/03 01:11:24;;;;;;;26.15;11.50;;;13.50;99.90;;;;;;4974720;28;20031;-78
2023/10/03 01:13:56;;;;;;;22.58;11.15;;;13.50;99.90;;;;;;4955898;28;20141;-79
2023/10/03 01:16:32;;;;;;;24.25;11.48;;;13.40;99.90;;;;;;4953906;28;20033;-81
2023/10/03 01:19:43;;;;;;;25.20;12.80;;;13.40;99.90;;;;;;4972044;28;20031;-80
2023/10/03 01:21:45;;;;;;;24.48;11.00;;;13.40;99.90;;;;;;4964861;28;20046;-79
2023/10/03 01:24:15;;;;;;;23.35;10.95;;;13.40;99.90;;;;;;4957240;28;20058;-81
2023/10/03 01:26:41;;;;;;;26.63;12.90;;;13.40;99.90;;;;;;4976549;28;20487;-78
2023/10/03 01:29:07;;;;;;;27.58;12.27;;;13.50;99.90;;;;;;4978543;28;20089;-80
2023/10/03 01:31:33;;;;;;;21.42;11.32;;;13.40;99.90;;;;;;4976820;28;20027;-81
2023/10/03 01:34:01;;;;;;;27.40;11.38;;;13.40;99.90;;;;;;4955154;28;20038;-81
2023/10/03 01:36:27;;;;;;;23.45;10.45;;;13.40;99.90;;;;;;4961348;28;20042;-79
2023/10/03 01:38:52;;;;;;;23.48;10.93;;;13.50;99.90;;;;;;4949636;28;20056;-79
2023/10/03 01:41:19;;;;;;;27.85;11.52;;;13.50;99.90;;;;;;4961680;28;20038;-81
2023/10/03 01:43:45;;;;;;;23.08;11.38;;;13.50;99.90;;;;;;4974839;28;20043;-83
2023/10/03 01:46:12;;;;;;;22.77;11.25;;;13.50;99.90;;;;;;4956723;28;20229;-79
2023/10/03 01:48:38;;;;;;;22.27;10.63;;;13.50;99.90;;;;;;4972768;28;20081;-81
2023/10/03 01:51:05;;;;;;;21.05;10.48;;;13.50;99.90;;;;;;4971643;28;20038;-80
2023/10/03 01:53:31;;;;;;;24.65;11.35;;;13.50;99.90;;;;;;4965539;28;20030;-81
2023/10/03 01:55:57;;;;;;;22.55;11.23;;;13.40;99.90;;;;;;4963519;28;20046;-81
2023/10/03 01:58:24;;;;;;;25.75;11.60;;;13.40;99.90;;;;;;4955372;28;20463;-78
2023/10/03 02:00:51;;;;;;;26.15;10.98;;;13.40;99.90;;;;;;4962350;28;20394;-80
2023/10/03 02:03:18;;;;;;;27.98;12.35;;;13.40;99.90;;;;;;4981645;28;20038;-81
2023/10/03 02:05:45;;;;;;;28.45;13.55;;;13.30;99.90;;;;;;4977281;28;20535;-79
2023/10/03 02:08:19;;;;;;;27.10;12.40;;;13.20;99.90;;;;;;4955270;28;20038;-81
2023/10/03 02:10:47;;;;;;;26.63;13.10;;;13.20;99.90;;;;;;4960151;28;20089;-80
2023/10/03 02:13:14;;;;;;;27.02;13.35;;;13.10;99.90;;;;;;4957400;28;20125;-80
2023/10/03 02:15:45;;;;;;;26.15;12.77;;;13.10;99.90;;;;;;4974417;28;20034;-81
2023/10/03 02:18:17;;;;;;;23.73;12.00;;;13.10;99.90;;;;;;4936837;28;20036;-81
2023/10/03 02:20:53;;;;;;;28.05;12.55;;;13.10;99.90;;;;;;4980325;28;20622;-81
2023/10/03 02:23:25;;;;;;;26.88;12.63;;;13.10;99.90;;;;;;4955031;28;20384;-79
2023/10/03 02:25:54;;;;;;;27.58;12.82;;;13.10;99.90;;;;;;4952825;28;20030;-79
2023/10/03 02:28:20;;;;;;;27.27;13.10;;;13.10;99.90;;;;;;4970059;28;20035;-79
2023/10/03 02:30:50;;;;;;;28.70;13.63;;;13.10;99.90;;;;;;4980641;28;20046;-79
2023/10/03 02:33:17;;;;;;;33.83;13.80;;;13.10;99.90;;;;;;4973723;28;20061;-78
2023/10/03 02:35:48;;;;;;;27.00;12.63;;;13.10;99.90;;;;;;4974923;28;20058;-78
2023/10/03 02:38:24;;;;;;;28.92;12.88;;;13.10;99.90;;;;;;4958317;28;20322;-80
2023/10/03 02:40:54;;;;;;;27.30;12.48;;;13.10;99.90;;;;;;4958780;28;20030;-79
2023/10/03 02:43:21;;;;;;;29.00;12.48;;;13.20;99.90;;;;;;4937008;28;20055;-80
2023/10/03 02:45:47;;;;;;;28.05;12.43;;;13.20;99.90;;;;;;4963504;28;20039;-81
2023/10/03 02:48:16;;;;;;;28.45;13.30;;;13.20;99.90;;;;;;4954668;28;20031;-81
2023/10/03 02:50:45;;;;;;;29.50;12.27;;;13.20;99.90;;;;;;4959280;28;20054;-79
2023/10/03 02:53:17;;;;;;;28.27;12.38;;;13.20;99.90;;;;;;4956440;28;20030;-79
2023/10/03 02:55:44;;;;;;;28.52;12.30;;;13.20;99.90;;;;;;4968061;28;20863;-80
2023/10/03 02:58:10;;;;;;;27.17;11.80;;;13.30;99.90;;;;;;4973392;28;20164;-80
2023/10/03 03:00:37;;;;;;;25.20;13.02;;;13.30;99.90;;;;;;4960347;28;20033;-80
2023/10/03 03:03:08;;;;;;;27.48;12.02;;;13.20;99.90;;;;;;4958437;28;20041;-80
2023/10/03 03:05:37;;;;;;;28.17;12.80;;;13.30;99.90;;;;;;4957631;28;20031;-79
2023/10/03 03:10:55;;;;;;;24.55;11.57;;;13.30;99.90;;;;;;4962854;28;20105;-79
2023/10/03 03:13:26;;;;;;;27.52;12.88;;;13.20;99.90;;;;;;4962383;28;20037;-79
2023/10/03 03:15:59;;;;;;;27.58;11.23;;;13.20;99.90;;;;;;4963756;28;20539;-79
2023/10/03 03:18:25;;;;;;;25.45;12.27;;;13.20;99.90;;;;;;4978446;28;20030;-78
2023/10/03 03:21:02;;;;;;;26.45;11.43;;;13.20;99.90;;;;;;4979708;28;20038;-80
2023/10/03 03:23:34;;;;;;;25.25;11.20;;;13.20;99.90;;;;;;4971811;28;20511;-80
2023/10/03 03:26:20;;;;;;;25.30;11.90;;;13.20;99.90;;;;;;4972427;28;20031;-80
2023/10/03 03:28:50;;;;;;;24.73;11.52;;;13.20;99.90;;;;;;4972337;28;20601;-78
2023/10/03 03:31:25;;;;;;;25.58;11.93;;;13.20;99.90;;;;;;4981978;28;20038;-80
2023/10/03 03:33:57;;;;;;;27.52;11.85;;;13.10;99.90;;;;;;4973468;28;20035;-79
2023/10/03 03:36:30;;;;;;;25.98;11.38;;;13.20;99.90;;;;;;4972484;28;20031;-80
2023/10/03 03:38:58;;;;;;;24.50;11.32;;;13.10;99.90;;;;;;4975044;28;20307;-81
2023/10/03 03:41:24;;;;;;;22.10;11.30;;;13.10;99.90;;;;;;4971063;28;20093;-79
2023/10/03 03:43:50;;;;;;;26.98;12.40;;;13.10;99.90;;;;;;4974878;28;20106;-79
2023/10/03 03:46:19;;;;;;;25.10;11.93;;;13.10;99.90;;;;;;4973192;28;20089;-79
2023/10/03 03:48:46;;;;;;;23.73;11.60;;;13.10;99.90;;;;;;4976196;28;20491;-79
2023/10/03 03:51:14;;;;;;;29.35;12.32;;;13.00;99.90;;;;;;4972396;28;20093;-79
2023/10/03 03:53:42;;;;;;;32.67;13.75;;;13.00;99.90;;;;;;4977577;28;20049;-79
2023/10/03 03:56:12;;;;;;;26.83;12.68;;;12.90;99.90;;;;;;4973335;28;20553;-79
2023/10/03 03:58:44;;;;;;;27.23;12.23;;;12.90;99.90;;;;;;4980639;28;20178;-80
2023/10/03 04:01:14;;;;;;;29.58;13.10;;;12.80;99.90;;;;;;4982463;28;20035;-79
2023/10/03 04:03:42;;;;;;;28.35;12.85;;;12.80;99.90;;;;;;4972469;28;20043;-78
2023/10/03 04:06:09;;;;;;;31.33;12.68;;;12.80;99.90;;;;;;4975308;28;20062;-81
2023/10/03 04:08:35;;;;;;;25.85;12.30;;;12.80;99.90;;;;;;4955472;28;20081;-79
2023/10/03 04:11:03;;;;;;;27.23;13.23;;;12.80;99.90;;;;;;4973087;28;20039;-81
2023/10/03 04:13:30;;;;;;;28.52;12.93;;;12.80;99.90;;;;;;4969989;28;20047;-79
2023/10/03 04:16:00;;;;;;;31.20;13.32;;;12.70;99.90;;;;;;4979139;28;20045;-80
2023/10/03 04:18:27;;;;;;;28.52;12.52;;;12.70;99.90;;;;;;4975853;28;20535;-78
2023/10/03 04:20:53;;;;;;;35.03;13.68;;;12.70;99.90;;;;;;4976461;28;20098;-80
2023/10/03 04:23:19;;;;;;;29.98;13.23;;;12.60;99.90;;;;;;4985345;28;20061;-80
2023/10/03 04:25:45;;;;;;;32.03;13.95;;;12.60;99.90;;;;;;4962362;28;20058;-79
2023/10/03 04:28:12;;;;;;;32.20;13.90;;;12.50;99.90;;;;;;4979838;28;20514;-79
2023/10/03 04:30:39;;;;;;;30.95;14.15;;;12.50;99.90;;;;;;4984274;28;20058;-78
2023/10/03 04:33:05;;;;;;;30.95;13.45;;;12.50;99.90;;;;;;4984002;28;20169;-79
2023/10/03 04:35:31;;;;;;;29.00;13.02;;;12.40;99.90;;;;;;4962044;28;20117;-79
2023/10/03 04:37:57;;;;;;;29.23;13.48;;;12.40;99.90;;;;;;4982516;28;20042;-79
2023/10/03 04:40:28;;;;;;;30.45;13.95;;;12.40;99.90;;;;;;4978215;28;20027;-79
2023/10/03 04:43:11;;;;;;;26.75;13.38;;;12.40;99.90;;;;;;4962720;28;20033;-79
2023/10/03 04:45:43;;;;;;;33.60;14.27;;;12.40;99.90;;;;;;4981445;28;20105;-79
2023/10/03 04:48:10;;;;;;;30.20;14.18;;;12.40;99.90;;;;;;4982585;28;20050;-79
2023/10/03 04:50:39;;;;;;;31.67;13.48;;;12.30;99.90;;;;;;4982537;28;20098;-80
2023/10/03 04:53:14;;;;;;;33.10;13.63;;;12.30;99.90;;;;;;4983247;28;20046;-79
2023/10/03 04:55:40;;;;;;;29.53;13.87;;;12.30;99.90;;;;;;4982082;28;20049;-79
2023/10/03 04:58:06;;;;;;;27.73;12.77;;;12.30;99.90;;;;;;4968903;28;20153;-79
2023/10/03 05:00:32;;;;;;;28.55;12.43;;;12.30;99.90;;;;;;4984309;28;20050;-79
2023/10/03 05:02:58;;;;;;;33.65;12.98;;;12.40;99.90;;;;;;4973565;28;20017;-79
2023/10/03 05:05:26;;;;;;;29.25;13.77;;;12.30;99.90;;;;;;4984019;28;20504;-79
2023/10/03 05:07:53;;;;;;;25.65;12.93;;;12.40;99.90;;;;;;4982554;28;20459;-79
2023/10/03 05:10:20;;;;;;;32.17;13.70;;;12.40;99.90;;;;;;4966018;28;20043;-81
2023/10/03 05:12:48;;;;;;;28.10;13.35;;;12.40;99.90;;;;;;4978021;28;20030;-80
2023/10/03 05:15:17;;;;;;;32.00;14.77;;;12.30;99.90;;;;;;4963859;28;20034;-80
2023/10/03 05:17:44;;;;;;;32.50;13.98;;;12.30;99.90;;;;;;4978615;28;20031;-79
2023/10/03 05:20:14;;;;;;;34.95;14.75;;;12.30;99.90;;;;;;4974194;28;20162;-79
2023/10/03 05:22:41;;;;;;;35.25;14.93;;;12.30;99.90;;;;;;4980663;28;20483;-77
2023/10/03 05:25:11;;;;;;;30.13;14.57;;;12.30;99.90;;;;;;4980696;28;20046;-79
2023/10/03 05:27:42;;;;;;;33.58;14.25;;;12.30;99.90;;;;;;4978916;28;20035;-79
2023/10/03 05:30:10;;;;;;;35.25;14.38;;;12.30;99.90;;;;;;4980177;28;20040;-80
2023/10/03 05:32:37;;;;;;;33.70;14.95;;;12.30;99.90;;;;;;4976032;28;20656;-81
2023/10/03 05:35:05;;;;;;;28.65;14.05;;;12.30;99.90;;;;;;4977997;28;20062;-80
2023/10/03 05:37:33;;;;;;;35.75;15.30;;;12.30;99.90;;;;;;4977751;28;20104;-79
2023/10/03 05:40:11;;;;;;;30.77;14.18;;;12.40;99.90;;;;;;4978727;28;20476;-79
2023/10/03 05:42:40;;;;;;;32.88;14.13;;;12.40;99.90;;;;;;4977871;28;20387;-78
2023/10/03 05:45:12;;;;;;;29.63;15.27;;;12.50;99.90;;;;;;4980764;28;20034;-78
2023/10/03 05:47:46;;;;;;;34.22;14.77;;;12.50;99.90;;;;;;4984635;28;20518;-79
2023/10/03 05:50:17;;;;;;;32.38;14.60;;;12.60;99.90;;;;;;4975911;28;20058;-79
2023/10/03 05:52:47;;;;;;;35.70;14.73;;;12.60;99.90;;;;;;4977849;28;20049;-79
2023/10/03 05:55:13;;;;;;;34.22;14.80;;;12.60;99.90;;;;;;4976224;28;20106;-79
2023/10/03 05:57:42;;;;;;;34.53;15.32;;;12.70;99.90;;;;;;4977173;28;20427;-79
2023/10/03 06:00:17;;;;;;;33.03;15.45;;;12.70;99.90;;;;;;4985609;28;20062;-79
2023/10/03 06:02:43;;;;;;;33.53;15.15;;;12.80;99.90;;;;;;4983187;28;20058;-79
2023/10/03 06:05:12;;;;;;;34.25;15.60;;;12.80;99.90;;;;;;4975725;28;20551;-79
2023/10/03 06:07:37;;;;;;;33.40;15.38;;;12.90;99.90;;;;;;4961078;28;20567;-79
2023/10/03 06:10:04;;;;;;;34.38;14.13;;;12.90;99.90;;;;;;4978781;28;20066;-79
2023/10/03 06:12:33;;;;;;;28.98;13.48;;;13.00;99.90;;;;;;4964784;28;20050;-79
2023/10/03 06:14:59;;;;;;;29.42;13.45;;;13.00;99.90;;;;;;4978880;28;20572;-79
2023/10/03 06:17:25;;;;;;;29.33;13.30;;;13.10;99.90;;;;;;4977899;28;20132;-79
2023/10/03 06:19:51;;;;;;;30.25;14.80;;;13.10;99.90;;;;;;4977504;28;20126;-80
2023/10/03 06:22:17;;;;;;;29.80;13.30;;;13.20;99.90;;;;;;4971460;28;20030;-79
2023/10/03 06:24:43;;;;;;;31.40;13.20;;;13.20;99.90;;;;;;4963594;28;20061;-78
2023/10/03 06:27:10;;;;;;;27.58;12.90;;;13.20;99.90;;;;;;4970194;28;20522;-79
2023/10/03 06:29:38;;;;;;;31.70;13.60;;;13.20;99.90;;;;;;4982725;28;20079;-79
2023/10/03 06:32:04;;;;;;;31.08;14.13;;;13.20;99.90;;;;;;4980713;28;20049;-78
2023/10/03 06:34:30;;;;;;;35.58;17.15;;;13.20;99.90;;;;;;4973753;28;20435;-79
2023/10/03 06:36:56;;;;;;;31.60;14.60;;;13.20;99.90;;;;;;4981745;28;20435;-79
2023/10/03 06:39:22;;;;;;;33.25;15.00;;;13.30;99.90;;;;;;4959382;28;20058;-79
2023/10/03 06:41:48;;;;;;;32.60;13.60;;;13.30;99.90;;;;;;4975617;28;20287;-79
2023/10/03 06:44:14;;;;;;;33.88;14.07;;;13.30;99.90;;;;;;4971577;28;20035;-79
2023/10/03 06:46:42;;;;;;;27.60;12.48;;;13.30;99.90;;;;;;4972575;28;20053;-79
2023/10/03 06:49:10;;;;;;;33.65;14.20;;;13.40;99.90;;;;;;4973216;28;20161;-79
2023/10/03 06:51:37;;;;;;;33.33;14.32;;;13.40;99.90;;;;;;4967940;28;20551;-81
2023/10/03 06:54:03;;;;;;;152.30;107.90;;;13.40;99.90;;;;;;4969135;28;20487;-79
2023/10/03 06:56:32;;;;;;;109.07;70.30;;;13.40;99.90;;;;;;4966469;28;20039;-79
2023/10/03 06:59:04;;;;;;;101.85;69.28;;;13.40;99.90;;;;;;4954886;28;20106;-80
2023/10/03 07:01:30;;;;;;;64.63;41.95;;;13.40;99.90;;;;;;4944508;28;20088;-79
2023/10/03 07:03:57;;;;;;;38.97;23.40;;;13.50;99.90;;;;;;4961385;28;20071;-81
2023/10/03 07:06:24;;;;;;;34.78;17.42;;;13.60;99.90;;;;;;4971998;28;20031;-79
2023/10/03 07:08:50;;;;;;;50.05;29.42;;;13.80;99.90;;;;;;4968468;28;20038;-79
2023/10/03 07:11:16;;;;;;;37.95;19.20;;;14.10;99.90;;;;;;4969351;28;20510;-79
2023/10/03 07:13:45;;;;;;;36.58;20.50;;;14.20;99.90;;;;;;4958682;28;20032;-78
2023/10/03 07:16:11;;;;;;;45.38;26.70;;;14.50;99.90;;;;;;4965064;28;20023;-78
2023/10/03 07:18:37;;;;;;;40.22;20.73;;;14.80;99.90;;;;;;4963490;28;20066;-78
2023/10/03 07:21:03;;;;;;;38.58;17.33;;;15.00;99.90;;;;;;4972154;28;20034;-79
2023/10/03 07:23:30;;;;;;;30.52;15.13;;;15.30;99.90;;;;;;4959548;28;20035;-79
2023/10/03 07:25:55;;;;;;;33.55;15.95;;;15.40;99.90;;;;;;4977967;28;20030;-79
2023/10/03 07:28:21;;;;;;;36.80;18.50;;;15.50;99.90;;;;;;4986511;28;20050;-79
2023/10/03 07:30:47;;;;;;;37.70;18.63;;;15.50;99.90;;;;;;4986480;28;20030;-79
2023/10/03 07:33:13;;;;;;;31.98;15.63;;;15.30;99.90;;;;;;4981880;28;20073;-79
2023/10/03 07:35:41;;;;;;;30.65;14.90;;;15.30;99.90;;;;;;4954257;28;20466;-78
2023/10/03 07:38:10;;;;;;;35.05;17.92;;;15.20;99.90;;;;;;4956950;28;20034;-78
2023/10/03 07:40:40;;;;;;;29.80;13.70;;;15.10;99.90;;;;;;4964916;28;20388;-77
2023/10/03 07:43:09;;;;;;;30.83;13.52;;;15.10;99.90;;;;;;4973838;28;20772;-78
2023/10/03 07:45:37;;;;;;;28.20;12.70;;;15.10;99.90;;;;;;4977704;28;20035;-78
2023/10/03 07:48:05;;;;;;;26.13;12.68;;;15.20;99.90;;;;;;4982044;28;20411;-78
2023/10/03 07:50:35;;;;;;;28.73;12.95;;;15.40;99.90;;;;;;4961742;28;20043;-78
2023/10/03 07:53:04;;;;;;;27.50;11.98;;;15.50;99.90;;;;;;4969314;28;20114;-79
2023/10/03 07:55:34;;;;;;;27.83;13.07;;;15.60;99.90;;;;;;4967675;28;20042;-80
2023/10/03 07:58:00;;;;;;;32.05;13.65;;;15.80;99.90;;;;;;4967016;28;20074;-78
2023/10/03 08:00:26;;;;;;;26.27;12.95;;;16.00;99.90;;;;;;4969231;28;20030;-78
2023/10/03 08:02:53;;;;;;;24.52;11.70;;;16.20;99.90;;;;;;4972403;28;20034;-80
2023/10/03 08:05:20;;;;;;;33.10;13.57;;;16.40;99.90;;;;;;4969825;28;20539;-79
2023/10/03 08:07:47;;;;;;;25.90;12.63;;;16.50;99.90;;;;;;4968954;28;20029;-78
2023/10/03 08:10:17;;;;;;;26.73;12.30;;;16.60;99.90;;;;;;4971395;28;20038;-79
2023/10/03 08:12:44;;;;;;;25.58;11.30;;;16.80;99.90;;;;;;4973873;28;20472;-79
2023/10/03 08:15:19;;;;;;;24.40;11.95;;;16.90;99.90;;;;;;4971845;28;20086;-77
2023/10/03 08:17:49;;;;;;;30.75;13.38;;;17.00;99.90;;;;;;4969689;28;21124;-79
2023/10/03 08:20:18;;;;;;;26.67;12.63;;;17.10;99.90;;;;;;4965781;28;20503;-78
2023/10/03 08:22:50;;;;;;;27.98;12.25;;;17.20;99.90;;;;;;4967979;28;20049;-79
2023/10/03 08:25:21;;;;;;;27.90;12.80;;;17.30;99.90;;;;;;4966896;28;20061;-80
2023/10/03 08:27:49;;;;;;;29.05;13.27;;;17.30;99.90;;;;;;4969149;28;20652;-79
2023/10/03 08:30:29;;;;;;;26.77;12.60;;;17.40;99.90;;;;;;4966158;28;20046;-78
2023/10/03 08:33:06;;;;;;;24.92;11.63;;;17.40;99.90;;;;;;4966935;28;20574;-80
2023/10/03 08:35:35;;;;;;;25.83;11.95;;;17.50;99.90;;;;;;4969161;28;20246;-80
2023/10/03 08:38:04;;;;;;;26.70;12.55;;;17.60;99.90;;;;;;4974023;28;20023;-79
2023/10/03 08:40:36;;;;;;;30.75;13.20;;;17.70;99.90;;;;;;4974078;28;20026;-80
2023/10/03 08:43:05;;;;;;;25.45;11.68;;;17.80;99.90;;;;;;4978709;28;20143;-77
2023/10/03 08:45:35;;;;;;;23.60;11.30;;;17.90;99.90;;;;;;4973850;28;20121;-77
2023/10/03 08:48:05;;;;;;;27.42;12.18;;;18.00;99.90;;;;;;4972581;28;20144;-77
2023/10/03 08:50:39;;;;;;;30.65;13.15;;;18.10;99.90;;;;;;4960659;28;20035;-78
2023/10/03 08:53:19;;;;;;;25.77;11.45;;;18.20;99.90;;;;;;4957209;28;20046;-78
2023/10/03 08:55:47;;;;;;;27.55;12.30;;;18.30;99.90;;;;;;4969058;28;20026;-78
2023/10/03 08:58:31;;;;;;;29.20;12.02;;;18.40;99.90;;;;;;4976826;28;20054;-77
2023/10/03 09:01:04;;;;;;;30.20;14.13;;;18.50;99.90;;;;;;4983782;28;20038;-78
2023/10/03 09:03:47;;;;;;;26.52;12.23;;;18.70;99.90;;;;;;4977718;28;20059;-78
2023/10/03 09:06:19;;;;;;;25.23;11.45;;;18.80;99.90;;;;;;4974216;28;20515;-78
2023/10/03 09:09:10;;;;;;;26.23;11.75;;;19.10;99.90;;;;;;4978341;28;20029;-77
2023/10/03 09:11:37;;;;;;;24.45;13.00;;;19.30;99.90;;;;;;4970249;28;20093;-78
2023/10/03 09:14:03;;;;;;;28.95;12.38;;;19.50;99.90;;;;;;4972966;28;20042;-78
2023/10/03 09:16:29;;;;;;;23.50;11.50;;;19.60;99.90;;;;;;4975730;28;20170;-79
2023/10/03 09:19:00;;;;;;;24.52;11.32;;;19.70;99.90;;;;;;4978498;28;20164;-78
2023/10/03 09:21:27;;;;;;;23.40;11.63;;;19.80;99.90;;;;;;4974123;28;20031;-78
2023/10/03 09:24:15;;;;;;;21.33;10.25;;;19.90;99.90;;;;;;4972729;28;20026;-80
2023/10/03 09:26:46;;;;;;;19.48;8.98;;;20.00;99.90;;;;;;4976470;28;20046;-79
2023/10/03 09:29:29;;;;;;;19.40;10.30;;;20.10;99.90;;;;;;4980288;28;20023;-79
2023/10/03 09:31:59;;;;;;;18.17;9.27;;;20.20;99.90;;;;;;4970071;28;20027;-78
2023/10/03 09:34:32;;;;;;;18.45;9.15;;;20.30;99.90;;;;;;4970409;28;20045;-80
2023/10/03 09:37:02;;;;;;;17.67;9.10;;;20.40;99.90;;;;;;4973155;28;20042;-81
2023/10/03 09:39:51;;;;;;;16.80;8.85;;;20.50;99.90;;;;;;4976054;28;20085;-78
2023/10/03 09:42:23;;;;;;;17.65;8.35;;;20.60;99.90;;;;;;4975510;28;20038;-78
2023/10/03 09:44:49;;;;;;;16.40;8.05;;;20.70;99.90;;;;;;4973680;28;20046;-79
2023/10/03 09:50:05;;;;;;;18.05;8.88;;;20.80;99.90;;;;;;4972133;28;20088;-78
2023/10/03 09:52:32;;;;;;;15.48;7.72;;;20.80;99.90;;;;;;4980070;28;20443;-78
2023/10/03 09:55:03;;;;;;;15.43;8.30;;;20.90;99.90;;;;;;4977435;28;20094;-78
2023/10/03 09:57:29;;;;;;;16.67;8.10;;;20.90;99.90;;;;;;4973275;28;20038;-78
2023/10/03 09:59:58;;;;;;;15.98;8.60;;;20.90;99.90;;;;;;4971910;28;20055;-79
2023/10/03 10:02:46;;;;;;;14.00;7.90;;;21.00;99.90;;;;;;4960009;28;20110;-79
2023/10/03 10:05:20;;;;;;;15.68;7.38;;;21.00;99.90;;;;;;4975355;28;20062;-78
2023/10/03 10:07:52;;;;;;;15.38;8.25;;;21.10;99.90;;;;;;4973315;28;20495;-78
2023/10/03 10:10:19;;;;;;;16.80;7.75;;;21.20;99.90;;;;;;4975131;28;20600;-78
2023/10/03 10:13:12;;;;;;;15.40;7.82;;;21.20;99.90;;;;;;4966078;28;20649;-78
2023/10/03 10:18:44;;;;;;;14.57;7.55;;;21.30;99.90;;;;;;4974085;28;20026;-78
2023/10/03 10:21:26;;;;;;;15.50;8.27;;;21.40;99.90;;;;;;4967877;28;20598;-78
2023/10/03 10:26:39;;;;;;;15.32;8.38;;;21.50;99.90;;;;;;4977131;28;20046;-80
2023/10/03 10:29:08;;;;;;;16.30;8.13;;;21.50;99.90;;;;;;4977504;28;20031;-78
2023/10/03 10:31:42;;;;;;;15.98;8.65;;;21.60;99.90;;;;;;4974350;28;20069;-79
2023/10/03 10:34:23;;;;;;;15.98;7.93;;;21.60;99.90;;;;;;4958430;28;20072;-80
2023/10/03 10:37:04;;;;;;;16.63;8.10;;;21.60;99.90;;;;;;4976764;28;20484;-78
2023/10/03 10:39:53;;;;;;;16.95;8.10;;;21.70;99.90;;;;;;4954694;28;20031;-78
2023/10/03 10:42:26;;;;;;;14.70;7.50;;;21.70;99.90;;;;;;4960652;28;20038;-77
2023/10/03 10:45:04;;;;;;;15.70;7.25;;;21.70;99.90;;;;;;4969157;28;20446;-78
2023/10/03 10:47:35;;;;;;;14.32;8.02;;;21.70;99.90;;;;;;4969712;28;20027;-78
2023/10/03 10:50:01;;;;;;;14.80;7.38;;;21.70;99.90;;;;;;4975439;28;20034;-78
2023/10/03 10:52:30;;;;;;;12.30;7.65;;;21.70;99.90;;;;;;4977957;28;20045;-79
2023/10/03 10:54:57;;;;;;;15.88;7.40;;;21.80;99.90;;;;;;4973667;28;20147;-80
2023/10/03 10:57:26;;;;;;;14.23;7.20;;;21.80;99.90;;;;;;4978358;28;20038;-79
2023/10/03 10:59:53;;;;;;;15.00;7.32;;;21.90;99.90;;;;;;4972753;28;20027;-79
2023/10/03 11:02:28;;;;;;;13.00;7.13;;;21.80;99.90;;;;;;4975213;28;20031;-78
2023/10/03 11:04:59;;;;;;;12.90;6.50;;;21.90;99.90;;;;;;4969367;28;20484;-79
2023/10/03 11:07:27;;;;;;;14.55;6.97;;;21.90;99.90;;;;;;4972968;28;20051;-78
2023/10/03 11:09:55;;;;;;;16.08;7.95;;;21.90;99.90;;;;;;4974991;28;20034;-81
2023/10/03 11:12:28;;;;;;;16.20;7.78;;;21.90;99.90;;;;;;4975898;28;20038;-78
2023/10/03 11:14:55;;;;;;;12.90;7.13;;;21.80;99.90;;;;;;4971122;28;20142;-78
2023/10/03 11:17:22;;;;;;;11.80;6.72;;;21.80;99.90;;;;;;4975790;28;20464;-78
2023/10/03 11:19:52;;;;;;;14.60;7.38;;;21.80;99.90;;;;;;4982196;28;20034;-78
2023/10/03 11:22:18;;;;;;;14.70;7.60;;;21.90;99.90;;;;;;4975743;28;20114;-79
2023/10/03 11:24:45;;;;;;;14.75;6.78;;;22.00;99.90;;;;;;4978154;28;20092;-78
2023/10/03 11:27:24;;;;;;;13.90;7.07;;;22.10;99.90;;;;;;4976914;28;20035;-78
2023/10/03 11:29:50;;;;;;;17.75;8.32;;;22.30;99.90;;;;;;4978819;28;20043;-80
2023/10/03 11:32:19;;;;;;;12.73;6.78;;;22.30;99.90;;;;;;4977373;28;20044;-79
2023/10/03 11:34:45;;;;;;;13.93;7.15;;;22.40;99.90;;;;;;4979825;28;20038;-78
2023/10/03 11:37:31;;;;;;;12.52;6.80;;;22.40;99.90;;;;;;4976176;28;20042;-79
2023/10/03 11:40:17;;;;;;;9.88;6.10;;;22.40;99.90;;;;;;4974210;28;20023;-79
2023/10/03 11:42:50;;;;;;;11.18;6.43;;;22.50;99.90;;;;;;4975109;28;20026;-79
2023/10/03 11:45:19;;;;;;;10.23;5.63;;;22.50;99.90;;;;;;4973636;28;20042;-80
2023/10/03 11:48:10;;;;;;;10.55;5.82;;;22.60;99.90;;;;;;4975472;28;20051;-78
2023/10/03 11:50:40;;;;;;;9.35;5.60;;;22.60;99.90;;;;;;4965281;28;20447;-78
2023/10/03 11:53:10;;;;;;;8.80;4.90;;;22.70;99.90;;;;;;4966955;28;20105;-78
2023/10/03 11:55:36;;;;;;;11.57;4.95;;;22.80;99.90;;;;;;4964652;28;20356;-81
2023/10/03 11:58:05;;;;;;;14.57;5.40;;;22.90;99.90;;;;;;4974351;28;20514;-81
2023/10/03 12:00:32;;;;;;;10.50;5.38;;;22.80;99.90;;;;;;4976313;28;20062;-78
2023/10/03 12:02:59;;;;;;;7.78;5.18;;;22.70;99.90;;;;;;4971726;28;20034;-78
2023/10/03 12:05:27;;;;;;;13.15;4.70;;;22.70;99.90;;;;;;4969778;28;20045;-78
2023/10/03 12:07:56;;;;;;;14.90;6.43;;;22.80;99.90;;;;;;4976443;28;20061;-78
2023/10/03 12:10:26;;;;;;;8.60;5.18;;;22.90;99.90;;;;;;4977505;28;20150;-78
2023/10/03 12:12:52;;;;;;;8.32;4.55;;;22.80;99.90;;;;;;4973176;28;20029;-77
2023/10/03 12:15:20;;;;;;;10.00;5.22;;;22.80;99.90;;;;;;4973773;28;20678;-78
2023/10/03 12:17:47;;;;;;;7.35;4.88;;;22.70;99.90;;;;;;4971630;28;20023;-79
2023/10/03 12:20:18;;;;;;;11.02;5.03;;;22.60;99.90;;;;;;4969041;28;20042;-78
2023/10/03 12:22:46;;;;;;;11.10;4.68;;;22.60;99.90;;;;;;4969192;28;20101;-78
2023/10/03 12:25:14;;;;;;;6.60;4.70;;;22.50;99.90;;;;;;4975497;28;20046;-77
2023/10/03 12:27:46;;;;;;;8.68;4.68;;;22.50;99.90;;;;;;4967295;28;20030;-77
2023/10/03 12:30:15;;;;;;;9.15;4.80;;;22.40;99.90;;;;;;4970584;28;20042;-79
2023/10/03 12:32:45;;;;;;;10.45;5.38;;;22.40;99.90;;;;;;4972445;28;20034;-78
2023/10/03 12:35:12;;;;;;;7.82;4.70;;;22.40;99.90;;;;;;4977565;28;20044;-78
2023/10/03 12:37:39;;;;;;;9.70;5.00;;;22.40;99.90;;;;;;4970446;28;20147;-78
2023/10/03 12:40:13;;;;;;;7.70;5.00;;;22.40;99.90;;;;;;4967647;28;20031;-78
2023/10/03 12:42:49;;;;;;;7.25;4.40;;;22.40;99.90;;;;;;4953840;28;20027;-79
2023/10/03 12:45:17;;;;;;;9.10;4.72;;;22.40;99.90;;;;;;4956750;28;20464;-79
2023/10/03 12:47:47;;;;;;;7.43;4.53;;;22.40;99.90;;;;;;4952953;28;20049;-78
2023/10/03 12:50:21;;;;;;;10.93;4.90;;;22.40;99.90;;;;;;4970046;28;20109;-80
2023/10/03 12:52:48;;;;;;;8.18;4.80;;;22.30;99.90;;;;;;4970433;28;20040;-78